Weather - Helsinki Query any day in the database

Current weather  

Weather data for a selected day (2006-01-01 -2020-10-30)
Enter date:     <-     scroll days         ->
day curves
Low temperature°C -22.907:00
High temperature°C -7.015:30
Low wind chill°C -29.204:30
Average temperature°C -15.8 
High wind speed (10 min) m/s 2.700:30
Low pressurehPa 1029.323:30
High pressurehPa 1032.310:00
Low R.H% 4815:30
High R.H% 9000:00
Maximum snow depthcm 2823:30
Day weather data as a table
Date Time Temp
°C
Chill
°C
Pressure
hPA
Wind
m/s
Hum
%
Precip
mm
2018-02-22 23:30:00 -17.9  -19.9  1029.3 0.8 89 -
2018-02-22 23:00:00 -17.4  -20.5  1029.4 1.1 86 -
2018-02-22 22:30:00 -16.8  -18.2  1029.4 0.7 88 -
2018-02-22 22:00:00 -17.0  -17.0  1029.4 0.0 89 -
2018-02-22 21:30:00 -14.8  -15.6  1029.4 0.6 89 -
2018-02-22 21:00:00 -16.1  -17.5  1029.6 0.7 87 -
2018-02-22 20:30:00 -14.0  -16.7  1029.6 1.1 82 -
2018-02-22 20:00:00 -12.3  -13.8  1029.7 0.8 78 -
2018-02-22 19:30:00 -12.2  -14.0  1029.6 0.9 76 -
2018-02-22 19:00:00 -12.6  -14.8  1029.7 1.0 67 -
2018-02-22 18:30:00 -11.4  -11.9  1029.7 0.6 69 -
2018-02-22 18:00:00 -12.1  -15.1  1029.9 1.3 67 -
2018-02-22 17:30:00 -10.4  -13.8  1029.9 1.6 58 -
2018-02-22 17:00:00 -9.6  -11.8  1030.0 1.1 57 -
2018-02-22 16:30:00 -9.5  -12.2  1030.1 1.3 55 -
2018-02-22 16:00:00 -8.5  -10.5  1030.3 1.1 49 -
2018-02-22 15:30:00 -7.0  -9.9  1030.5 1.6 48 -
2018-02-22 15:00:00 -7.3  -10.7  1030.8 1.8 50 -
2018-02-22 14:30:00 -7.3  -11.4  1031.2 2.3 54 -
2018-02-22 14:00:00 -7.4  -9.8  1031.3 1.3 57 -
2018-02-22 13:30:00 -8.0  -10.9  1031.4 1.5 63 -
2018-02-22 13:00:00 -9.6  -13.7  1031.5 2.0 72 -
2018-02-22 12:30:00 -10.1  -12.8  1031.5 1.3 70 -
2018-02-22 12:00:00 -11.8  -13.6  1031.5 0.9 76 -
2018-02-22 11:30:00 -13.9  -15.9  1031.8 0.9 84 -
2018-02-22 11:00:00 -15.1  -17.9  1032.0 1.1 84 -
2018-02-22 10:30:00 -16.8  -19.5  1032.2 1.0 85 -
2018-02-22 10:00:00 -19.3  -25.0  1032.3 2.0 83 -
2018-02-22 09:30:00 -19.6  -23.6  1032.3 1.3 83 -
2018-02-22 09:00:00 -21.7  -25.9  1032.2 1.3 82 -
2018-02-22 08:30:00 -21.8  -27.4  1032.1 1.8 82 -
2018-02-22 08:00:00 -22.2  -27.9  1032.1 1.8 84 -
2018-02-22 07:30:00 -22.7  -27.9  1032.0 1.6 83 -
2018-02-22 07:00:00 -22.9  -28.7  1032.0 1.8 82 -
2018-02-22 06:30:00 -20.7  -25.1  1031.9 1.4 85 -
2018-02-22 06:00:00 -22.2  -26.8  1032.1 1.4 83 -
2018-02-22 05:30:00 -21.5  -27.5  1032.0 2.0 84 -
2018-02-22 05:00:00 -21.7  -27.5  1031.8 1.9 84 -
2018-02-22 04:30:00 -22.1  -29.2  1031.8 2.5 83 -
2018-02-22 04:00:00 -21.0  -27.6  1031.7 2.3 84 -
2018-02-22 03:30:00 -20.5  -26.8  1031.8 2.2 85 -
2018-02-22 03:00:00 -20.2  -26.6  1031.8 2.3 85 -
2018-02-22 02:30:00 -20.4  -25.6  1031.8 1.7 85 -
2018-02-22 02:00:00 -20.1  -24.7  1031.8 1.5 85 -
2018-02-22 01:30:00 -18.8  -25.0  1031.7 2.3 85 -
2018-02-22 01:00:00 -18.1  -23.6  1031.7 2.0 87 -
2018-02-22 00:30:00 -16.6  -23.0  1031.5 2.7 88 -
2018-02-22 00:00:00 -16.2  -21.9  1031.4 2.3 90 -
Unit conversions: